Time;durP1;ratioP1;P1;durP2;ratioP2;P2;SDS_P1;SDS_P2;PMS_P1;PMS_P2;Temp;Humidity;BMP_temperature;BMP_pressure;BME280_temperature;BME280_humidity;BME280_pressure;Samples;Min_cycle;Max_cycle;Signal;HPM_P1;HPM_P2
2023/03/22 00:01:55;;;;;;;13.30;5.70;;;;;;;;;;5135592;27;20042;-80
2023/03/22 00:04:21;;;;;;;13.52;5.18;;;;;;;;;;5148734;27;20099;-80
2023/03/22 00:06:47;;;;;;;13.10;5.05;;;;;;;;;;5116525;27;20046;-79
2023/03/22 00:09:14;;;;;;;11.40;4.38;;;;;;;;;;5139727;27;20042;-77
2023/03/22 00:11:40;;;;;;;14.82;5.30;;;;;;;;;;5140317;27;20498;-80
2023/03/22 00:14:06;;;;;;;13.43;4.65;;;;;;;;;;5156597;27;20521;-79
2023/03/22 00:16:32;;;;;;;11.45;4.47;;;;;;;;;;5157291;27;20413;-78
2023/03/22 00:18:59;;;;;;;14.40;4.78;;;;;;;;;;5156284;27;20098;-78
2023/03/22 00:21:25;;;;;;;12.80;4.18;;;;;;;;;;5156736;27;20117;-80
2023/03/22 00:23:51;;;;;;;12.10;3.90;;;;;;;;;;5142113;27;20069;-77
2023/03/22 00:26:17;;;;;;;9.63;3.42;;;;;;;;;;5156955;27;20039;-79
2023/03/22 00:28:43;;;;;;;13.05;3.55;;;;;;;;;;5156932;27;20125;-79
2023/03/22 00:31:10;;;;;;;10.52;2.90;;;;;;;;;;5141690;27;20038;-80
2023/03/22 00:33:36;;;;;;;10.77;3.15;;;;;;;;;;5139405;27;20030;-79
2023/03/22 00:36:04;;;;;;;9.05;2.50;;;;;;;;;;5174685;27;20034;-79
2023/03/22 00:38:37;;;;;;;9.05;2.22;;;;;;;;;;5156869;27;20042;-79
2023/03/22 00:41:04;;;;;;;13.30;2.50;;;;;;;;;;5149194;27;20042;-79
2023/03/22 00:43:30;;;;;;;10.32;2.65;;;;;;;;;;5132088;27;20042;-79
2023/03/22 00:45:56;;;;;;;7.10;2.00;;;;;;;;;;5150693;27;20091;-80
2023/03/22 00:48:23;;;;;;;10.48;2.22;;;;;;;;;;5136176;27;20082;-79
2023/03/22 00:50:49;;;;;;;9.73;2.10;;;;;;;;;;5138249;27;20030;-79
2023/03/22 00:53:15;;;;;;;8.50;2.25;;;;;;;;;;5139032;27;20109;-78
2023/03/22 00:55:41;;;;;;;8.85;1.90;;;;;;;;;;5156333;27;20046;-78
2023/03/22 00:58:07;;;;;;;10.75;2.05;;;;;;;;;;5139056;27;20046;-80
2023/03/22 01:00:33;;;;;;;11.68;2.72;;;;;;;;;;5161280;27;20038;-81
2023/03/22 01:03:03;;;;;;;8.95;2.53;;;;;;;;;;5140484;27;20041;-77
2023/03/22 01:05:32;;;;;;;9.82;2.20;;;;;;;;;;5156350;27;20078;-79
2023/03/22 01:08:05;;;;;;;8.15;2.40;;;;;;;;;;5155813;27;20072;-77
2023/03/22 01:10:31;;;;;;;8.32;1.95;;;;;;;;;;5156171;27;20065;-79
2023/03/22 01:12:57;;;;;;;11.75;2.30;;;;;;;;;;5138055;27;20118;-79
2023/03/22 01:15:24;;;;;;;11.85;2.75;;;;;;;;;;5144763;27;20055;-78
2023/03/22 01:17:50;;;;;;;8.75;1.80;;;;;;;;;;5139182;27;20094;-78
2023/03/22 01:20:17;;;;;;;7.65;1.70;;;;;;;;;;5155800;27;20114;-78
2023/03/22 01:22:43;;;;;;;8.00;1.80;;;;;;;;;;5139023;27;20030;-80
2023/03/22 01:25:09;;;;;;;11.50;2.10;;;;;;;;;;5155577;27;20061;-80
2023/03/22 01:27:36;;;;;;;7.25;1.90;;;;;;;;;;5144067;27;20066;-80
2023/03/22 01:30:02;;;;;;;10.57;1.98;;;;;;;;;;5149361;27;20062;-78
2023/03/22 01:32:28;;;;;;;12.32;1.75;;;;;;;;;;5145745;27;20049;-78
2023/03/22 01:34:54;;;;;;;9.90;2.00;;;;;;;;;;5118491;27;20057;-79
2023/03/22 01:37:26;;;;;;;9.48;1.95;;;;;;;;;;5155740;27;20069;-80
2023/03/22 01:39:53;;;;;;;6.40;1.73;;;;;;;;;;5141600;27;20486;-77
2023/03/22 01:42:21;;;;;;;9.70;1.67;;;;;;;;;;5174244;27;20045;-78
2023/03/22 01:45:06;;;;;;;5.32;1.80;;;;;;;;;;5155658;27;20046;-78
2023/03/22 01:47:34;;;;;;;8.90;1.50;;;;;;;;;;5138427;27;20034;-77
2023/03/22 01:50:00;;;;;;;9.18;1.85;;;;;;;;;;5137902;27;20038;-79
2023/03/22 01:52:26;;;;;;;11.48;1.95;;;;;;;;;;5155407;27;20030;-78
2023/03/22 01:54:53;;;;;;;9.45;2.10;;;;;;;;;;5138643;27;20038;-79
2023/03/22 01:57:19;;;;;;;9.10;1.77;;;;;;;;;;5143551;27;20391;-79
2023/03/22 01:59:46;;;;;;;11.52;2.53;;;;;;;;;;5153590;27;20050;-80
2023/03/22 02:02:17;;;;;;;7.63;1.58;;;;;;;;;;5149619;27;20038;-78
2023/03/22 02:04:49;;;;;;;8.57;1.90;;;;;;;;;;5138839;27;20046;-80
2023/03/22 02:07:24;;;;;;;6.13;1.80;;;;;;;;;;5149278;27;20121;-80
2023/03/22 02:09:51;;;;;;;11.77;1.88;;;;;;;;;;5163467;27;20417;-79
2023/03/22 02:12:20;;;;;;;6.68;1.50;;;;;;;;;;5158804;27;20042;-77
2023/03/22 02:14:52;;;;;;;11.43;1.80;;;;;;;;;;5159254;27;20048;-78
2023/03/22 02:17:26;;;;;;;7.63;1.90;;;;;;;;;;5158956;27;20359;-79
2023/03/22 02:19:52;;;;;;;9.73;1.75;;;;;;;;;;5159446;27;20042;-78
2023/03/22 02:22:41;;;;;;;11.57;2.33;;;;;;;;;;5128816;27;20599;-80
2023/03/22 02:25:07;;;;;;;10.82;2.15;;;;;;;;;;5146164;27;20049;-80
2023/03/22 02:27:42;;;;;;;11.63;2.03;;;;;;;;;;5177881;27;20456;-80
2023/03/22 02:30:20;;;;;;;10.32;1.83;;;;;;;;;;5131190;27;20482;-79
2023/03/22 02:32:53;;;;;;;10.63;2.15;;;;;;;;;;5158754;27;20049;-78
2023/03/22 02:35:37;;;;;;;18.02;2.45;;;;;;;;;;5158744;27;20038;-78
2023/03/22 02:38:22;;;;;;;10.02;2.55;;;;;;;;;;5156647;27;20098;-79
2023/03/22 02:41:07;;;;;;;9.45;2.30;;;;;;;;;;5148944;27;20063;-80
2023/03/22 02:43:45;;;;;;;9.52;2.40;;;;;;;;;;5145525;27;20513;-80
2023/03/22 02:46:17;;;;;;;10.90;2.40;;;;;;;;;;5131365;27;20398;-77
2023/03/22 02:49:02;;;;;;;13.60;3.20;;;;;;;;;;5158694;27;20045;-78
2023/03/22 02:51:34;;;;;;;12.82;2.58;;;;;;;;;;5134153;27;20040;-77
2023/03/22 02:54:00;;;;;;;11.93;2.88;;;;;;;;;;5158873;27;20482;-78
2023/03/22 02:56:32;;;;;;;11.02;2.70;;;;;;;;;;5158146;27;20076;-77
2023/03/22 02:59:00;;;;;;;12.30;2.55;;;;;;;;;;5158617;27;20042;-80
2023/03/22 03:01:28;;;;;;;11.18;3.10;;;;;;;;;;5160889;27;20092;-77
2023/03/22 03:03:56;;;;;;;13.15;2.67;;;;;;;;;;5146736;27;20125;-80
2023/03/22 03:06:27;;;;;;;8.55;2.60;;;;;;;;;;5155091;27;20030;-78
2023/03/22 03:08:56;;;;;;;11.10;2.60;;;;;;;;;;5117394;27;20039;-80
2023/03/22 03:11:22;;;;;;;12.20;2.67;;;;;;;;;;5137160;27;20043;-80
2023/03/22 03:13:49;;;;;;;12.32;3.22;;;;;;;;;;5155267;27;20050;-80
2023/03/22 03:16:21;;;;;;;10.73;3.42;;;;;;;;;;5155654;27;20050;-78
2023/03/22 03:18:50;;;;;;;7.07;2.90;;;;;;;;;;5139828;27;20129;-78
2023/03/22 03:21:34;;;;;;;15.30;2.72;;;;;;;;;;5157718;27;20042;-78
2023/03/22 03:24:20;;;;;;;9.50;2.70;;;;;;;;;;5158163;27;20046;-80
2023/03/22 03:26:51;;;;;;;11.93;3.10;;;;;;;;;;5127647;27;20403;-80
2023/03/22 03:29:22;;;;;;;11.10;2.90;;;;;;;;;;5151328;27;20127;-80
2023/03/22 03:31:48;;;;;;;13.68;3.28;;;;;;;;;;5148915;27;20038;-78
2023/03/22 03:34:19;;;;;;;12.82;3.15;;;;;;;;;;5139816;27;20079;-80
2023/03/22 03:36:57;;;;;;;10.70;3.10;;;;;;;;;;5146680;27;20047;-80
2023/03/22 03:39:26;;;;;;;6.70;3.03;;;;;;;;;;5142596;27;20045;-77
2023/03/22 03:41:52;;;;;;;10.90;3.33;;;;;;;;;;5140144;27;20042;-77
2023/03/22 03:44:19;;;;;;;10.48;3.42;;;;;;;;;;5157838;27;20099;-80
2023/03/22 03:46:46;;;;;;;10.15;3.17;;;;;;;;;;5121778;27;20043;-80
2023/03/22 03:49:12;;;;;;;12.50;3.63;;;;;;;;;;5157199;27;20478;-78
2023/03/22 03:52:05;;;;;;;10.15;3.20;;;;;;;;;;5157370;27;20062;-77
2023/03/22 03:54:31;;;;;;;8.82;2.83;;;;;;;;;;5153780;27;20047;-80
2023/03/22 03:56:57;;;;;;;8.18;2.85;;;;;;;;;;5151278;27;20391;-78
2023/03/22 03:59:24;;;;;;;10.82;3.00;;;;;;;;;;5144867;27;20446;-80
2023/03/22 04:01:52;;;;;;;10.07;3.10;;;;;;;;;;5157504;27;20385;-78
2023/03/22 04:04:25;;;;;;;10.43;3.03;;;;;;;;;;5125963;27;20098;-79
2023/03/22 04:06:55;;;;;;;11.45;2.80;;;;;;;;;;5157395;27;20069;-79
2023/03/22 04:09:22;;;;;;;12.43;2.90;;;;;;;;;;5118296;27;20047;-80
2023/03/22 04:11:48;;;;;;;10.43;3.10;;;;;;;;;;5148273;27;20041;-80
2023/03/22 04:14:14;;;;;;;8.40;2.33;;;;;;;;;;5157007;27;20046;-80
2023/03/22 04:16:40;;;;;;;9.82;2.65;;;;;;;;;;5157513;27;20398;-80
2023/03/22 04:19:06;;;;;;;6.38;2.60;;;;;;;;;;5139596;27;20045;-77
2023/03/22 04:21:33;;;;;;;11.23;3.15;;;;;;;;;;5155827;27;20045;-78
2023/03/22 04:23:59;;;;;;;9.32;3.03;;;;;;;;;;5175633;27;20545;-80
2023/03/22 04:26:25;;;;;;;8.50;3.20;;;;;;;;;;5156438;27;20064;-78
2023/03/22 04:28:51;;;;;;;9.48;3.22;;;;;;;;;;5151144;27;20594;-79
2023/03/22 04:31:17;;;;;;;13.55;4.30;;;;;;;;;;5118912;27;20482;-79
2023/03/22 04:33:46;;;;;;;12.98;4.85;;;;;;;;;;5151135;27;20043;-80
2023/03/22 04:36:16;;;;;;;11.98;4.47;;;;;;;;;;5136072;27;20042;-80
2023/03/22 04:38:42;;;;;;;12.55;5.00;;;;;;;;;;5152135;27;20046;-80
2023/03/22 04:41:09;;;;;;;12.68;5.25;;;;;;;;;;5156595;27;20053;-78
2023/03/22 04:43:38;;;;;;;15.18;5.75;;;;;;;;;;5124874;27;20443;-78
2023/03/22 04:46:11;;;;;;;13.73;5.22;;;;;;;;;;5148797;27;20054;-78
2023/03/22 04:48:38;;;;;;;14.80;5.97;;;;;;;;;;5155963;27;20146;-79
2023/03/22 04:51:05;;;;;;;14.35;6.05;;;;;;;;;;5127050;27;20069;-78
2023/03/22 04:53:31;;;;;;;16.95;6.63;;;;;;;;;;5149779;27;20038;-78
2023/03/22 04:55:57;;;;;;;16.88;7.20;;;;;;;;;;5135789;27;20367;-77
2023/03/22 04:58:24;;;;;;;15.07;6.85;;;;;;;;;;5135047;27;20067;-78
2023/03/22 05:00:51;;;;;;;12.80;7.18;;;;;;;;;;5148286;27;20034;-77
2023/03/22 05:03:19;;;;;;;13.75;7.90;;;;;;;;;;5121463;27;20035;-80
2023/03/22 05:05:49;;;;;;;20.10;8.65;;;;;;;;;;5128548;27;20210;-78
2023/03/22 05:08:15;;;;;;;21.42;9.07;;;;;;;;;;5155523;27;20057;-78
2023/03/22 05:10:41;;;;;;;18.05;9.77;;;;;;;;;;5155715;27;20038;-79
2023/03/22 05:13:08;;;;;;;23.88;9.40;;;;;;;;;;5138944;27;20486;-79
2023/03/22 05:15:34;;;;;;;17.67;9.40;;;;;;;;;;5138660;27;20046;-81
2023/03/22 05:18:00;;;;;;;20.17;9.52;;;;;;;;;;5138940;27;20046;-81
2023/03/22 05:20:26;;;;;;;19.70;9.68;;;;;;;;;;5156409;27;20471;-82
2023/03/22 05:22:55;;;;;;;20.13;10.13;;;;;;;;;;5120505;27;20091;-79
2023/03/22 05:25:22;;;;;;;20.65;10.13;;;;;;;;;;5143009;27;20083;-80
2023/03/22 05:27:49;;;;;;;21.70;10.45;;;;;;;;;;5156150;27;20504;-78
2023/03/22 05:30:15;;;;;;;21.60;10.00;;;;;;;;;;5138809;27;20494;-79
2023/03/22 05:32:42;;;;;;;21.73;10.55;;;;;;;;;;5141989;27;20042;-79
2023/03/22 05:35:09;;;;;;;16.63;9.13;;;;;;;;;;5160228;27;20037;-79
2023/03/22 05:37:35;;;;;;;21.45;10.40;;;;;;;;;;5159864;27;20038;-80
2023/03/22 05:40:04;;;;;;;19.25;10.35;;;;;;;;;;5145372;27;20046;-81
2023/03/22 05:42:31;;;;;;;18.48;10.05;;;;;;;;;;5151169;27;20054;-79
2023/03/22 05:44:57;;;;;;;20.63;10.02;;;;;;;;;;5159904;27;20049;-79
2023/03/22 05:47:23;;;;;;;20.98;10.20;;;;;;;;;;5160312;27;20522;-81
2023/03/22 05:49:49;;;;;;;22.45;10.75;;;;;;;;;;5126288;27;20039;-81
2023/03/22 05:52:15;;;;;;;18.75;10.45;;;;;;;;;;5147474;27;20375;-81
2023/03/22 05:54:41;;;;;;;20.45;10.60;;;;;;;;;;5159488;27;20034;-81
2023/03/22 05:57:07;;;;;;;19.98;10.82;;;;;;;;;;5136918;27;20398;-80
2023/03/22 05:59:33;;;;;;;20.25;10.77;;;;;;;;;;5151157;27;20398;-81
2023/03/22 06:01:59;;;;;;;24.08;10.68;;;;;;;;;;5126760;27;20041;-80
2023/03/22 06:04:25;;;;;;;20.45;10.80;;;;;;;;;;5132048;27;20481;-81
2023/03/22 06:06:52;;;;;;;21.13;10.32;;;;;;;;;;5159701;27;20038;-81
2023/03/22 06:09:19;;;;;;;23.95;10.23;;;;;;;;;;5178176;27;20042;-79
2023/03/22 06:11:45;;;;;;;19.92;10.27;;;;;;;;;;5127457;27;20519;-78
2023/03/22 06:14:11;;;;;;;21.77;10.27;;;;;;;;;;5158989;27;20121;-78
2023/03/22 06:16:37;;;;;;;24.52;11.13;;;;;;;;;;5159153;27;20044;-78
2023/03/22 06:19:03;;;;;;;24.90;10.57;;;;;;;;;;5154846;27;20498;-81
2023/03/22 06:21:29;;;;;;;17.58;10.20;;;;;;;;;;5138422;27;20047;-79
2023/03/22 06:23:55;;;;;;;20.80;10.23;;;;;;;;;;5155192;27;20037;-79
2023/03/22 06:26:21;;;;;;;18.65;9.65;;;;;;;;;;5159231;27;20042;-79
2023/03/22 06:28:48;;;;;;;16.75;9.65;;;;;;;;;;5158619;27;20431;-78
2023/03/22 06:31:14;;;;;;;21.10;9.73;;;;;;;;;;5159100;27;20034;-78
2023/03/22 06:33:40;;;;;;;20.58;9.30;;;;;;;;;;5158632;27;20030;-79
2023/03/22 06:36:06;;;;;;;17.27;9.35;;;;;;;;;;5141632;27;20038;-79
2023/03/22 06:38:32;;;;;;;17.35;9.57;;;;;;;;;;5158662;27;20045;-78
2023/03/22 06:40:58;;;;;;;19.58;9.60;;;;;;;;;;5127338;27;20510;-79
2023/03/22 06:43:24;;;;;;;18.92;9.65;;;;;;;;;;5176451;27;20034;-79
2023/03/22 06:45:51;;;;;;;23.15;10.30;;;;;;;;;;5141400;27;20494;-79
2023/03/22 06:48:17;;;;;;;14.35;8.43;;;;;;;;;;5141279;27;20069;-78
2023/03/22 06:50:43;;;;;;;16.45;8.02;;;;;;;;;;5158551;27;20038;-78
2023/03/22 06:53:10;;;;;;;16.70;8.52;;;;;;;;;;5158812;27;20046;-79
2023/03/22 06:55:36;;;;;;;17.63;9.02;;;;;;;;;;5141016;27;20030;-78
2023/03/22 06:58:02;;;;;;;17.23;9.05;;;;;;;;;;5158631;27;20114;-79
2023/03/22 07:00:28;;;;;;;21.30;8.55;;;;;;;;;;5138357;27;20033;-78
2023/03/22 07:02:54;;;;;;;18.35;7.90;;;;;;;;;;5149284;27;20057;-79
2023/03/22 07:05:21;;;;;;;16.05;8.13;;;;;;;;;;5158363;27;20375;-81
2023/03/22 07:07:47;;;;;;;16.08;8.07;;;;;;;;;;5155662;27;20102;-81
2023/03/22 07:10:13;;;;;;;16.27;7.53;;;;;;;;;;5143585;27;20045;-81
2023/03/22 07:12:39;;;;;;;17.65;7.88;;;;;;;;;;5141272;27;20389;-81
2023/03/22 07:15:05;;;;;;;14.70;7.55;;;;;;;;;;5143376;27;20388;-81
2023/03/22 07:17:32;;;;;;;15.77;7.43;;;;;;;;;;5158194;27;20487;-81
2023/03/22 07:19:58;;;;;;;14.55;6.97;;;;;;;;;;5157913;27;20065;-80
2023/03/22 07:22:24;;;;;;;12.95;7.25;;;;;;;;;;5158455;27;20040;-81
2023/03/22 07:24:51;;;;;;;15.55;6.85;;;;;;;;;;5157670;27;20042;-81
2023/03/22 07:27:17;;;;;;;11.15;6.47;;;;;;;;;;5143291;27;20049;-82
2023/03/22 07:29:44;;;;;;;16.85;7.68;;;;;;;;;;5136882;27;20058;-81
2023/03/22 07:32:10;;;;;;;13.85;6.30;;;;;;;;;;5116932;27;20039;-81
2023/03/22 07:34:36;;;;;;;18.98;7.18;;;;;;;;;;5136387;27;20041;-80
2023/03/22 07:37:03;;;;;;;16.00;7.13;;;;;;;;;;5140463;27;20049;-78
2023/03/22 07:39:29;;;;;;;14.02;6.35;;;;;;;;;;5157363;27;20051;-79
2023/03/22 07:41:56;;;;;;;13.80;6.88;;;;;;;;;;5140386;27;20550;-79
2023/03/22 07:44:22;;;;;;;15.02;6.97;;;;;;;;;;5154024;27;20508;-79
2023/03/22 07:46:50;;;;;;;13.68;6.32;;;;;;;;;;5155815;27;20038;-78
2023/03/22 07:49:16;;;;;;;14.65;6.82;;;;;;;;;;5157428;27;20046;-79
2023/03/22 07:51:42;;;;;;;12.45;5.72;;;;;;;;;;5157284;27;20382;-79
2023/03/22 07:54:08;;;;;;;10.77;5.60;;;;;;;;;;5157299;27;20490;-79
2023/03/22 07:56:35;;;;;;;14.60;5.57;;;;;;;;;;5156535;27;20049;-79
2023/03/22 07:59:01;;;;;;;14.40;5.65;;;;;;;;;;5139599;27;20058;-79
2023/03/22 08:01:27;;;;;;;14.27;6.22;;;;;;;;;;5129046;27;20490;-79
2023/03/22 08:03:53;;;;;;;18.35;5.88;;;;;;;;;;5156577;27;20454;-79
2023/03/22 08:06:20;;;;;;;13.15;6.05;;;;;;;;;;5156960;27;20038;-79
2023/03/22 08:08:46;;;;;;;12.88;5.80;;;;;;;;;;5156894;27;20038;-79
2023/03/22 08:11:13;;;;;;;14.73;6.05;;;;;;;;;;5140184;27;20494;-81
2023/03/22 08:13:39;;;;;;;14.40;5.55;;;;;;;;;;5152391;27;20495;-81
2023/03/22 08:16:06;;;;;;;12.95;5.32;;;;;;;;;;5135732;27;20054;-80
2023/03/22 08:18:32;;;;;;;15.38;5.82;;;;;;;;;;5139678;27;20486;-82
2023/03/22 08:20:59;;;;;;;13.65;6.50;;;;;;;;;;5156835;27;20090;-81
2023/03/22 08:23:26;;;;;;;18.98;7.22;;;;;;;;;;5140127;27;20046;-79
2023/03/22 08:25:52;;;;;;;14.45;5.93;;;;;;;;;;5156841;27;20042;-79
2023/03/22 08:28:19;;;;;;;15.95;5.57;;;;;;;;;;5151086;27;20051;-80
2023/03/22 08:30:45;;;;;;;11.23;4.82;;;;;;;;;;5147548;27;20077;-81
2023/03/22 08:33:12;;;;;;;13.02;4.93;;;;;;;;;;5139689;27;20482;-81
2023/03/22 08:35:38;;;;;;;13.13;4.70;;;;;;;;;;5145073;27;20078;-82
2023/03/22 08:38:04;;;;;;;11.75;4.85;;;;;;;;;;5153615;27;20054;-82
2023/03/22 08:40:30;;;;;;;10.60;5.18;;;;;;;;;;5129863;27;20045;-81
2023/03/22 08:42:57;;;;;;;12.07;5.10;;;;;;;;;;5118609;27;20117;-82
2023/03/22 08:45:24;;;;;;;12.02;4.30;;;;;;;;;;5162050;27;20038;-79
2023/03/22 08:47:50;;;;;;;11.48;4.05;;;;;;;;;;5156119;27;20044;-78
2023/03/22 08:50:16;;;;;;;9.40;4.47;;;;;;;;;;5156120;27;20045;-79
2023/03/22 08:52:42;;;;;;;17.77;4.30;;;;;;;;;;5156390;27;20038;-79
2023/03/22 08:55:09;;;;;;;16.33;4.55;;;;;;;;;;5155725;27;20034;-79
2023/03/22 08:57:35;;;;;;;11.98;4.20;;;;;;;;;;5156288;27;20138;-79
2023/03/22 09:00:05;;;;;;;11.38;4.03;;;;;;;;;;5138800;27;20042;-79
2023/03/22 09:02:31;;;;;;;8.65;3.70;;;;;;;;;;5156183;27;20046;-80
2023/03/22 09:04:57;;;;;;;9.00;3.63;;;;;;;;;;5138814;27;20044;-81
2023/03/22 09:07:24;;;;;;;10.07;3.65;;;;;;;;;;5135216;27;20095;-81
2023/03/22 09:09:50;;;;;;;8.05;3.30;;;;;;;;;;5118273;27;20050;-80
2023/03/22 09:12:16;;;;;;;9.35;3.35;;;;;;;;;;5154238;27;20042;-77
2023/03/22 09:14:42;;;;;;;12.93;3.63;;;;;;;;;;5156018;27;20050;-79
2023/03/22 09:17:08;;;;;;;10.13;3.80;;;;;;;;;;5155573;27;20045;-79
2023/03/22 09:19:34;;;;;;;10.45;3.63;;;;;;;;;;5130488;27;20059;-81
2023/03/22 09:22:00;;;;;;;9.73;3.60;;;;;;;;;;5150339;27;20486;-79
2023/03/22 09:24:26;;;;;;;10.52;3.72;;;;;;;;;;5138807;27;20094;-79
2023/03/22 09:26:53;;;;;;;13.60;3.72;;;;;;;;;;5155631;27;20046;-78
2023/03/22 09:29:19;;;;;;;11.27;3.78;;;;;;;;;;5156126;27;20401;-78
2023/03/22 09:31:47;;;;;;;11.65;3.25;;;;;;;;;;5156094;27;20483;-79
2023/03/22 09:34:14;;;;;;;10.60;3.47;;;;;;;;;;5136710;27;20098;-81
2023/03/22 09:36:41;;;;;;;13.27;3.50;;;;;;;;;;5118138;27;20035;-81
2023/03/22 09:39:08;;;;;;;8.43;3.88;;;;;;;;;;5153599;27;20038;-82
2023/03/22 09:41:38;;;;;;;12.07;3.80;;;;;;;;;;5135510;27;20046;-81
2023/03/22 09:44:06;;;;;;;11.55;3.63;;;;;;;;;;5131192;27;20046;-82
2023/03/22 09:46:36;;;;;;;11.20;4.20;;;;;;;;;;5153196;27;20494;-82
2023/03/22 09:49:05;;;;;;;14.23;4.20;;;;;;;;;;5150211;27;20398;-79
2023/03/22 09:51:42;;;;;;;16.63;5.20;;;;;;;;;;5155720;27;20090;-82
2023/03/22 09:54:21;;;;;;;12.95;4.00;;;;;;;;;;5138419;27;20097;-79
2023/03/22 09:56:58;;;;;;;12.48;4.10;;;;;;;;;;5155700;27;20034;-81
2023/03/22 09:59:38;;;;;;;12.18;4.40;;;;;;;;;;5127686;27;20050;-81
2023/03/22 10:02:16;;;;;;;12.82;4.55;;;;;;;;;;5139769;27;20516;-78
2023/03/22 10:04:47;;;;;;;13.60;4.70;;;;;;;;;;5156030;27;20046;-81
2023/03/22 10:07:13;;;;;;;14.90;4.65;;;;;;;;;;5140693;27;20080;-78
2023/03/22 10:09:39;;;;;;;15.13;4.57;;;;;;;;;;5155792;27;20034;-78
2023/03/22 10:12:40;;;;;;;12.70;4.93;;;;;;;;;;5155205;27;20038;-81
2023/03/22 10:15:18;;;;;;;13.50;5.47;;;;;;;;;;5052251;28;20048;-80
2023/03/22 10:17:54;;;;;;;14.32;4.80;;;;;;;;;;5121520;27;20043;-78
2023/03/22 10:20:31;;;;;;;12.07;4.70;;;;;;;;;;5089412;27;20087;-78
2023/03/22 10:22:58;;;;;;;14.65;4.93;;;;;;;;;;5134968;27;20039;-78
2023/03/22 10:25:31;;;;;;;13.60;4.93;;;;;;;;;;5152322;27;20126;-80
2023/03/22 10:27:58;;;;;;;16.23;5.90;;;;;;;;;;5098004;28;20396;-82
2023/03/22 10:30:40;;;;;;;14.40;5.53;;;;;;;;;;5128889;27;20093;-81
2023/03/22 10:33:14;;;;;;;13.15;6.05;;;;;;;;;;5134854;27;20077;-78
2023/03/22 10:35:41;;;;;;;16.50;5.85;;;;;;;;;;5120301;27;20069;-77
2023/03/22 10:38:09;;;;;;;12.05;4.60;;;;;;;;;;5134577;27;20104;-82
2023/03/22 10:40:36;;;;;;;16.60;5.50;;;;;;;;;;5103994;28;20091;-81
2023/03/22 10:43:02;;;;;;;15.45;5.50;;;;;;;;;;5094113;28;20036;-80
2023/03/22 10:45:28;;;;;;;12.35;5.88;;;;;;;;;;5106834;27;20056;-77
2023/03/22 10:47:58;;;;;;;16.75;6.10;;;;;;;;;;5121776;27;20046;-78
2023/03/22 10:50:29;;;;;;;17.80;7.20;;;;;;;;;;5134123;27;20384;-78
2023/03/22 10:53:03;;;;;;;12.70;5.53;;;;;;;;;;5134527;27;20474;-78
2023/03/22 10:55:29;;;;;;;14.57;5.55;;;;;;;;;;5134445;27;20039;-77
2023/03/22 10:58:05;;;;;;;12.75;5.20;;;;;;;;;;5134265;27;20043;-82
2023/03/22 11:00:31;;;;;;;15.70;5.72;;;;;;;;;;5097643;28;20131;-81
2023/03/22 11:02:59;;;;;;;17.67;6.10;;;;;;;;;;5127852;27;20043;-82
2023/03/22 11:05:26;;;;;;;13.13;5.75;;;;;;;;;;5116090;27;20044;-83
2023/03/22 11:07:53;;;;;;;12.07;5.75;;;;;;;;;;5114453;28;20510;-82
2023/03/22 11:10:21;;;;;;;13.60;4.90;;;;;;;;;;5098036;27;20043;-84
2023/03/22 11:12:52;;;;;;;10.00;4.63;;;;;;;;;;5134374;27;20066;-77
2023/03/22 11:15:24;;;;;;;7.78;4.60;;;;;;;;;;5144354;27;20055;-78
2023/03/22 11:17:51;;;;;;;9.30;4.57;;;;;;;;;;5154775;27;20043;-78
2023/03/22 11:20:18;;;;;;;9.60;4.78;;;;;;;;;;5154381;27;20034;-79
2023/03/22 11:22:48;;;;;;;10.93;4.50;;;;;;;;;;5154781;27;20420;-78
2023/03/22 11:25:21;;;;;;;11.75;4.80;;;;;;;;;;5154194;27;20047;-77
2023/03/22 11:27:52;;;;;;;8.65;4.30;;;;;;;;;;5125645;27;20034;-78
2023/03/22 11:30:21;;;;;;;8.70;3.92;;;;;;;;;;5154276;27;20078;-77
2023/03/22 11:32:47;;;;;;;10.27;4.63;;;;;;;;;;5154243;27;20089;-77
2023/03/22 11:35:17;;;;;;;8.88;4.32;;;;;;;;;;5154198;27;20390;-78
2023/03/22 11:37:45;;;;;;;11.07;4.32;;;;;;;;;;5154361;27;20046;-79
2023/03/22 11:40:22;;;;;;;10.25;4.55;;;;;;;;;;5153989;27;20045;-78
2023/03/22 11:42:49;;;;;;;8.35;4.10;;;;;;;;;;5154357;27;20137;-78
2023/03/22 11:45:17;;;;;;;8.35;4.00;;;;;;;;;;5147711;27;20062;-78
2023/03/22 11:47:43;;;;;;;9.98;3.65;;;;;;;;;;5146343;27;20046;-77
2023/03/22 11:50:25;;;;;;;9.52;4.50;;;;;;;;;;5131987;27;20399;-82
2023/03/22 11:52:52;;;;;;;10.38;3.70;;;;;;;;;;5133536;27;20043;-82
2023/03/22 11:55:19;;;;;;;9.30;3.97;;;;;;;;;;5147711;27;20039;-83
2023/03/22 11:57:46;;;;;;;12.38;4.22;;;;;;;;;;5144901;27;20043;-82
2023/03/22 12:00:20;;;;;;;13.13;4.20;;;;;;;;;;5140399;27;20039;-82
2023/03/22 12:02:51;;;;;;;14.25;4.78;;;;;;;;;;5133830;27;20051;-82
2023/03/22 12:05:26;;;;;;;10.10;4.00;;;;;;;;;;5147834;27;20042;-78
2023/03/22 12:08:12;;;;;;;10.82;4.45;;;;;;;;;;5143646;27;20399;-77
2023/03/22 12:10:38;;;;;;;;;;;;;;;;;;5095747;27;20054;-77
2023/03/22 12:13:07;;;;;;;10.82;4.35;;;;;;;;;;5153559;27;20445;-78
2023/03/22 12:15:36;;;;;;;12.10;3.70;;;;;;;;;;5149785;27;20104;-81
2023/03/22 12:18:06;;;;;;;10.82;4.38;;;;;;;;;;5116236;27;20043;-81
2023/03/22 12:20:39;;;;;;;9.02;3.92;;;;;;;;;;5150115;27;20472;-81
2023/03/22 12:23:13;;;;;;;8.52;4.00;;;;;;;;;;5126495;27;20043;-81
2023/03/22 12:25:40;;;;;;;11.05;4.00;;;;;;;;;;5135892;27;20086;-83
2023/03/22 12:28:07;;;;;;;8.93;4.05;;;;;;;;;;5127190;27;20152;-82
2023/03/22 12:30:54;;;;;;;9.50;4.65;;;;;;;;;;5147184;27;20058;-82
2023/03/22 12:33:44;;;;;;;12.73;4.63;;;;;;;;;;5115813;27;20487;-83
2023/03/22 12:36:15;;;;;;;11.40;4.70;;;;;;;;;;5152905;27;20510;-82
2023/03/22 12:38:45;;;;;;;9.45;4.40;;;;;;;;;;5141491;27;20043;-82
2023/03/22 12:41:15;;;;;;;11.93;4.78;;;;;;;;;;5132408;27;20035;-83
2023/03/22 12:43:41;;;;;;;13.55;5.40;;;;;;;;;;5132998;27;20392;-82
2023/03/22 12:46:10;;;;;;;8.68;4.90;;;;;;;;;;5136728;27;20152;-82
2023/03/22 12:48:45;;;;;;;11.27;5.57;;;;;;;;;;5120764;27;20098;-83
2023/03/22 12:51:12;;;;;;;11.73;5.63;;;;;;;;;;5153768;27;20129;-82
2023/03/22 12:53:44;;;;;;;12.23;5.85;;;;;;;;;;5153004;27;20390;-78
2023/03/22 12:56:11;;;;;;;12.02;5.60;;;;;;;;;;5154194;27;20491;-78
2023/03/22 12:58:37;;;;;;;17.83;6.57;;;;;;;;;;5152283;27;20050;-78
2023/03/22 13:01:27;;;;;;;12.60;5.95;;;;;;;;;;5146271;27;20039;-78
2023/03/22 13:03:56;;;;;;;13.32;5.82;;;;;;;;;;5152163;27;20030;-79
2023/03/22 13:06:28;;;;;;;12.50;5.72;;;;;;;;;;5152278;27;20123;-78
2023/03/22 13:09:07;;;;;;;12.07;6.05;;;;;;;;;;5152405;27;20043;-78
2023/03/22 13:11:34;;;;;;;14.25;5.85;;;;;;;;;;5140042;27;20399;-82
2023/03/22 13:14:00;;;;;;;11.68;5.70;;;;;;;;;;5132320;28;20045;-82
2023/03/22 13:16:47;;;;;;;11.20;6.20;;;;;;;;;;5131972;28;20047;-82
2023/03/22 13:19:18;;;;;;;13.70;6.38;;;;;;;;;;5147080;27;20496;-82
2023/03/22 13:21:48;;;;;;;15.95;6.82;;;;;;;;;;5132085;28;20126;-82
2023/03/22 13:24:15;;;;;;;17.80;7.65;;;;;;;;;;5132308;28;20051;-81
2023/03/22 13:26:47;;;;;;;13.02;6.38;;;;;;;;;;5132305;28;20092;-82
2023/03/22 13:29:32;;;;;;;13.32;6.25;;;;;;;;;;5150845;27;20068;-82
2023/03/22 13:32:00;;;;;;;14.20;6.40;;;;;;;;;;5140636;27;20068;-82
2023/03/22 13:34:46;;;;;;;12.02;6.40;;;;;;;;;;5129620;28;20483;-82
2023/03/22 13:37:38;;;;;;;11.93;6.33;;;;;;;;;;5133214;28;20045;-83
2023/03/22 13:40:21;;;;;;;14.65;7.00;;;;;;;;;;5130252;28;20348;-83
2023/03/22 13:42:47;;;;;;;15.95;6.68;;;;;;;;;;5136219;27;20121;-82
2023/03/22 13:45:31;;;;;;;11.50;6.35;;;;;;;;;;5136561;27;20595;-82
2023/03/22 13:48:20;;;;;;;11.85;6.50;;;;;;;;;;5138299;27;20039;-82
2023/03/22 13:50:47;;;;;;;15.30;6.22;;;;;;;;;;5115519;27;20055;-83
2023/03/22 13:53:20;;;;;;;13.85;6.45;;;;;;;;;;5138948;27;20032;-82
2023/03/22 13:55:46;;;;;;;14.95;6.72;;;;;;;;;;5136732;27;20054;-78
2023/03/22 13:58:35;;;;;;;14.95;7.50;;;;;;;;;;5150857;27;20122;-78
2023/03/22 14:01:02;;;;;;;15.88;8.65;;;;;;;;;;5132453;27;20114;-78
2023/03/22 14:03:40;;;;;;;15.43;8.32;;;;;;;;;;5151780;27;20030;-79
2023/03/22 14:06:09;;;;;;;15.40;7.95;;;;;;;;;;5146904;27;20073;-79
2023/03/22 14:08:36;;;;;;;13.48;7.47;;;;;;;;;;5151774;27;20130;-78
2023/03/22 14:11:10;;;;;;;16.77;8.23;;;;;;;;;;5156650;27;20027;-78
2023/03/22 14:13:39;;;;;;;14.52;8.10;;;;;;;;;;5154473;27;20090;-78
2023/03/22 14:16:18;;;;;;;16.02;7.03;;;;;;;;;;5143320;27;20051;-78
2023/03/22 14:18:46;;;;;;;16.20;6.88;;;;;;;;;;5155598;27;20502;-78
2023/03/22 14:21:15;;;;;;;15.60;6.93;;;;;;;;;;5155952;27;20126;-79
2023/03/22 14:23:46;;;;;;;13.20;7.45;;;;;;;;;;5156593;27;20042;-78
2023/03/22 14:26:15;;;;;;;13.65;7.30;;;;;;;;;;5148539;27;20043;-78
2023/03/22 14:28:41;;;;;;;15.57;8.25;;;;;;;;;;5131651;27;20491;-79
2023/03/22 14:31:14;;;;;;;15.52;8.25;;;;;;;;;;5155662;27;20095;-79
2023/03/22 14:33:43;;;;;;;18.02;9.77;;;;;;;;;;5155891;27;20046;-78
2023/03/22 14:36:12;;;;;;;24.52;11.88;;;;;;;;;;5155769;27;20042;-79
2023/03/22 14:38:41;;;;;;;19.40;10.20;;;;;;;;;;5155205;27;20054;-79
2023/03/22 14:41:10;;;;;;;20.40;9.48;;;;;;;;;;5141296;27;20058;-82
2023/03/22 14:43:36;;;;;;;17.35;8.95;;;;;;;;;;5145201;27;20114;-82